createdAt,value
2023-04-21T00:01:28.420Z,95099.72
2023-04-21T00:04:30.461Z,95096.91
2023-04-21T00:07:32.421Z,95093.06
2023-04-21T00:10:34.289Z,95089.97
2023-04-21T00:13:37.364Z,95086.53
2023-04-21T00:16:39.292Z,95088.84
2023-04-21T00:19:41.137Z,95091.78
2023-04-21T00:22:42.956Z,95088.38
2023-04-21T00:25:44.774Z,95082.16
2023-04-21T00:28:47.913Z,95084.81
2023-04-21T00:31:49.782Z,95085.63
2023-04-21T00:34:51.643Z,95093.25
2023-04-21T00:37:53.485Z,95089.00
2023-04-21T00:40:55.269Z,95088.97
2023-04-21T00:44:06.114Z,95092.81
2023-04-21T00:47:07.908Z,95088.63
2023-04-21T00:50:11.293Z,95086.59
2023-04-21T00:53:14.620Z,95078.91
2023-04-21T00:56:17.269Z,95092.31
2023-04-21T00:59:20.624Z,95090.66
2023-04-21T01:02:23.082Z,95092.78
2023-04-21T01:05:25.097Z,95089.47
2023-04-21T01:08:27.835Z,95070.66
2023-04-21T01:11:29.526Z,95074.97
2023-04-21T01:14:32.738Z,95074.25
2023-04-21T01:17:34.497Z,95073.88
2023-04-21T01:20:36.520Z,95066.16
2023-04-21T01:23:39.794Z,95066.88
2023-04-21T01:26:41.580Z,95072.84
2023-04-21T01:29:43.768Z,95066.28
2023-04-21T01:32:45.576Z,95068.91
2023-04-21T01:35:47.570Z,95072.31
2023-04-21T01:38:52.324Z,95071.72
2023-04-21T01:41:55.159Z,95067.44
2023-04-21T01:44:57.555Z,95061.41
2023-04-21T01:47:59.457Z,95081.63
2023-04-21T01:51:01.226Z,95077.03
2023-04-21T01:54:04.576Z,95069.69
2023-04-21T01:57:06.419Z,95066.91
2023-04-21T02:00:09.397Z,95065.63
2023-04-21T02:03:11.335Z,95065.09
2023-04-21T02:06:13.176Z,95065.41
2023-04-21T02:09:16.368Z,95061.97
2023-04-21T02:12:18.834Z,95054.59
2023-04-21T02:15:20.577Z,95054.28
2023-04-21T02:18:22.379Z,95048.00
2023-04-21T02:21:24.849Z,95051.41
2023-04-21T02:24:27.954Z,95050.59
2023-04-21T02:27:29.678Z,95059.72
2023-04-21T02:30:31.554Z,95051.66
2023-04-21T02:33:33.294Z,95043.47
2023-04-21T02:36:35.081Z,95035.41
2023-04-21T02:39:38.255Z,95029.31
2023-04-21T02:42:40.116Z,95044.84
2023-04-21T02:45:41.866Z,95046.69
2023-04-21T02:48:43.662Z,95035.63
2023-04-21T02:51:45.421Z,95032.03
2023-04-21T02:54:48.523Z,95029.81
2023-04-21T02:57:50.637Z,95032.03
2023-04-21T03:00:52.401Z,95030.78
2023-04-21T03:03:54.293Z,95034.97
2023-04-21T03:06:56.099Z,95042.34
2023-04-21T03:09:59.237Z,95050.97
2023-04-21T03:13:01.062Z,95047.72
2023-04-21T03:16:02.927Z,95046.44
2023-04-21T03:19:04.716Z,95039.31
2023-04-21T03:22:06.742Z,95052.47
2023-04-21T03:25:09.850Z,95044.50
2023-04-21T03:28:11.582Z,95044.50
2023-04-21T03:31:13.430Z,95035.78
2023-04-21T03:34:15.359Z,95041.75
2023-04-21T03:37:17.206Z,95037.63
2023-04-21T03:40:20.484Z,95041.44
2023-04-21T03:43:22.342Z,95045.63
2023-04-21T03:46:24.110Z,95044.06
2023-04-21T03:49:26.099Z,95048.97
2023-04-21T03:52:27.911Z,95046.88
2023-04-21T03:55:30.979Z,95051.56
2023-04-21T03:58:32.742Z,95049.28
2023-04-21T04:01:34.728Z,95049.31
2023-04-21T04:04:36.598Z,95034.38
2023-04-21T04:07:38.442Z,95029.44
2023-04-21T04:10:41.646Z,95043.50
2023-04-21T04:13:43.414Z,95055.63
2023-04-21T04:16:45.174Z,95052.69
2023-04-21T04:19:46.981Z,95061.00
2023-04-21T04:22:48.760Z,95063.47
2023-04-21T04:25:51.895Z,95060.00
2023-04-21T04:28:53.685Z,95063.16
2023-04-21T04:31:55.606Z,95060.22
2023-04-21T04:34:57.372Z,95053.44
2023-04-21T04:37:59.120Z,95058.22
2023-04-21T04:41:02.234Z,95055.91
2023-04-21T04:44:04.157Z,95062.69
2023-04-21T04:47:06.144Z,95061.16
2023-04-21T04:50:08.626Z,95063.47
2023-04-21T04:53:10.502Z,95063.25
2023-04-21T04:56:13.580Z,95063.09
2023-04-21T04:59:15.287Z,95067.06
2023-04-21T05:02:17.107Z,95079.00
2023-04-21T05:05:18.916Z,95075.69
2023-04-21T05:08:20.680Z,95070.69
2023-04-21T05:11:23.888Z,95073.66
2023-04-21T05:14:26.688Z,95072.31
2023-04-21T05:17:28.516Z,95075.50
2023-04-21T05:20:30.371Z,95087.16
2023-04-21T05:23:32.174Z,95086.16
2023-04-21T05:26:35.366Z,95087.81
2023-04-21T05:29:37.137Z,95081.00
2023-04-21T05:32:39.026Z,95082.88
2023-04-21T05:35:40.855Z,95079.91
2023-04-21T05:38:43.104Z,95086.81
2023-04-21T05:41:46.169Z,95080.81
2023-04-21T05:44:47.972Z,95081.34
2023-04-21T05:47:49.707Z,95079.13
2023-04-21T05:50:51.484Z,95088.78
2023-04-21T05:53:53.281Z,95090.78
2023-04-21T05:56:56.419Z,95090.91
2023-04-21T05:59:58.616Z,95085.31
2023-04-21T06:03:00.430Z,95098.44
2023-04-21T06:06:04.079Z,95091.22
2023-04-21T06:09:05.860Z,95093.22
2023-04-21T06:12:09.194Z,95088.69
2023-04-21T06:15:11.127Z,95089.91
2023-04-21T06:18:12.919Z,95087.59
2023-04-21T06:21:14.737Z,95094.09
2023-04-21T06:24:16.778Z,95086.50
2023-04-21T06:27:19.995Z,95090.38
2023-04-21T06:30:21.927Z,95090.06
2023-04-21T06:33:23.698Z,95090.81
2023-04-21T06:36:25.408Z,95090.47
2023-04-21T06:39:28.782Z,95089.78
2023-04-21T06:42:31.898Z,95085.97
2023-04-21T06:45:33.624Z,95090.28
2023-04-21T06:48:35.321Z,95090.28
2023-04-21T06:51:37.161Z,95083.09
2023-04-21T06:54:38.960Z,95080.44
2023-04-21T06:57:42.221Z,95075.50
2023-04-21T07:00:43.947Z,95081.31
2023-04-21T07:03:46.090Z,95079.44
2023-04-21T07:06:48.003Z,95079.16
2023-04-21T07:09:49.720Z,95076.53
2023-04-21T07:12:52.944Z,95068.25
2023-04-21T07:15:54.872Z,95072.19
2023-04-21T07:18:56.963Z,95075.72
2023-04-21T07:21:58.763Z,95065.03
2023-04-21T07:25:00.564Z,95071.63
2023-04-21T07:28:03.906Z,95071.66
2023-04-21T07:31:05.754Z,95073.22
2023-04-21T07:34:07.492Z,95077.88
2023-04-21T07:37:09.299Z,95071.00
2023-04-21T07:40:11.706Z,95081.06
2023-04-21T07:43:14.997Z,95084.97
2023-04-21T07:46:16.831Z,95081.91
2023-04-21T07:49:18.776Z,95090.78
2023-04-21T07:52:20.663Z,95083.47
2023-04-21T07:55:22.439Z,95088.47
2023-04-21T07:58:25.576Z,95091.16
2023-04-21T08:01:27.420Z,95087.31
2023-04-21T08:04:29.406Z,95090.81
2023-04-21T08:07:31.233Z,95090.06
2023-04-21T08:10:33.112Z,95085.06
2023-04-21T08:13:36.291Z,95088.91
2023-04-21T08:16:38.479Z,95092.38
2023-04-21T08:19:40.600Z,95094.31
2023-04-21T08:22:42.734Z,95089.31
2023-04-21T08:25:44.611Z,95090.47
2023-04-21T08:28:47.761Z,95088.53
2023-04-21T08:31:49.663Z,95095.09
2023-04-21T08:34:52.471Z,95086.97
2023-04-21T08:37:54.266Z,95080.41
2023-04-21T08:40:58.761Z,95076.91
2023-04-21T08:44:02.460Z,95073.78
2023-04-21T08:47:05.168Z,95084.56
2023-04-21T08:50:12.045Z,95082.22
2023-04-21T08:53:13.951Z,95091.06
2023-04-21T08:56:15.673Z,95087.19
2023-04-21T08:59:18.874Z,95087.94
2023-04-21T09:02:22.084Z,95096.00
2023-04-21T09:05:24.991Z,95089.34
2023-04-21T09:08:28.031Z,95086.22
2023-04-21T09:11:33.350Z,95088.50
2023-04-21T09:14:36.474Z,95080.69
2023-04-21T09:17:38.246Z,95082.19
2023-04-21T09:20:40.593Z,95081.38
2023-04-21T09:23:43.584Z,95083.25
2023-04-21T09:26:45.341Z,95087.41
2023-04-21T09:29:48.690Z,95091.22
2023-04-21T09:32:50.533Z,95083.28
2023-04-21T09:35:52.830Z,95085.13
2023-04-21T09:39:24.264Z,95084.63
2023-04-21T09:42:20.407Z,95079.88
2023-04-21T09:45:39.194Z,95072.78
2023-04-21T09:48:44.734Z,95075.41
2023-04-21T09:54:57.212Z,95072.41
2023-04-21T09:58:00.778Z,95067.78
2023-04-21T10:01:04.653Z,95063.78
2023-04-21T10:04:07.080Z,95069.91
2023-04-21T10:07:10.212Z,95069.75
2023-04-21T10:10:19.060Z,95071.50
2023-04-21T10:13:22.430Z,95068.47
2023-04-21T10:16:26.964Z,95078.09
2023-04-21T10:19:28.780Z,95066.41
2023-04-21T10:22:32.097Z,95068.84
2023-04-21T10:25:33.903Z,95068.13
2023-04-21T10:28:43.446Z,95066.78
2023-04-21T10:31:52.454Z,95059.03
2023-04-21T10:34:56.994Z,95066.41
2023-04-21T10:37:58.992Z,95063.94
2023-04-21T10:41:25.825Z,95066.31
2023-04-21T10:44:29.042Z,95065.00
2023-04-21T10:47:37.737Z,95057.06
2023-04-21T10:50:39.783Z,95056.81
2023-04-21T10:53:43.776Z,95048.06
2023-04-21T10:56:45.554Z,95049.41
2023-04-21T10:59:48.307Z,95048.84
2023-04-21T11:02:59.699Z,95052.09
2023-04-21T11:06:14.765Z,95049.28
2023-04-21T11:09:16.548Z,95046.53
2023-04-21T11:12:18.924Z,95046.31
2023-04-21T11:15:20.729Z,95040.25
2023-04-21T11:18:32.689Z,95041.19
2023-04-21T11:21:34.462Z,95037.16
2023-04-21T11:24:36.191Z,95030.44
2023-04-21T11:27:37.960Z,95041.69
2023-04-21T11:30:39.767Z,95038.03
2023-04-21T11:33:43.030Z,95037.53
2023-04-21T11:36:46.154Z,95029.03
2023-04-21T11:39:47.902Z,95042.47
2023-04-21T11:42:50.406Z,95032.59
2023-04-21T11:45:52.391Z,95030.84
2023-04-21T11:49:03.401Z,95028.84
2023-04-21T11:52:05.199Z,95026.72
2023-04-21T11:55:12.089Z,95029.13
2023-04-21T11:58:14.132Z,95030.06
2023-04-21T12:01:16.364Z,95028.72
2023-04-21T12:04:20.988Z,95028.81
2023-04-21T12:07:23.200Z,95029.47
2023-04-21T12:10:24.908Z,95026.47
2023-04-21T12:13:27.859Z,95020.63
2023-04-21T12:16:29.820Z,95030.31
2023-04-21T12:19:41.031Z,95030.47
2023-04-21T12:22:42.907Z,95028.94
2023-04-21T12:25:45.877Z,95027.16
2023-04-21T12:28:47.606Z,95033.22
2023-04-21T12:31:49.441Z,95024.38
2023-04-21T12:34:52.827Z,95019.41
2023-04-21T12:37:54.525Z,95022.53
2023-04-21T12:40:56.314Z,95015.94
2023-04-21T12:43:57.975Z,95010.78
2023-04-21T12:46:59.790Z,95013.50
2023-04-21T12:50:03.563Z,95004.22
2023-04-21T12:53:05.323Z,95008.50
2023-04-21T12:56:07.266Z,95006.97
2023-04-21T12:59:09.598Z,95005.34
2023-04-21T13:02:12.190Z,94996.53
2023-04-21T13:05:15.300Z,95001.63
2023-04-21T13:08:17.023Z,95000.44
2023-04-21T13:11:18.801Z,94993.47
2023-04-21T13:14:20.603Z,94996.63
2023-04-21T13:17:22.705Z,94983.84
2023-04-21T13:20:25.907Z,94979.94
2023-04-21T13:23:27.655Z,94987.56
2023-04-21T13:26:30.928Z,94975.78
2023-04-21T13:29:32.893Z,94978.66
2023-04-21T13:32:34.909Z,94984.09
2023-04-21T13:35:38.411Z,94976.44
2023-04-21T13:38:40.295Z,94982.75
2023-04-21T13:41:41.997Z,94977.22
2023-04-21T13:44:43.776Z,94978.19
2023-04-21T13:47:45.632Z,94976.09
2023-04-21T13:50:48.790Z,94974.91
2023-04-21T13:53:50.540Z,94961.56
2023-04-21T13:56:52.298Z,94978.63
2023-04-21T13:59:54.158Z,94970.41
2023-04-21T14:02:56.184Z,94965.38
2023-04-21T14:05:59.481Z,94976.63
2023-04-21T14:09:01.286Z,94966.19
2023-04-21T14:12:03.363Z,94959.84
2023-04-21T14:15:06.240Z,94953.06
2023-04-21T14:18:08.192Z,94957.06
2023-04-21T14:21:11.450Z,94948.50
2023-04-21T14:24:13.248Z,94947.97
2023-04-21T14:27:15.126Z,94943.41
2023-04-21T14:30:16.981Z,94944.75
2023-04-21T14:33:18.826Z,94939.66
2023-04-21T14:36:22.104Z,94935.53
2023-04-21T14:39:23.997Z,94930.25
2023-04-21T14:42:25.710Z,94931.06
2023-04-21T14:45:27.659Z,94928.09
2023-04-21T14:48:29.552Z,94927.38
2023-04-21T14:51:32.803Z,94925.97
2023-04-21T14:54:34.615Z,94928.84
2023-04-21T14:57:36.370Z,94916.47
2023-04-21T15:00:38.245Z,94923.97
2023-04-21T15:03:40.244Z,94923.34
2023-04-21T15:06:43.477Z,94926.88
2023-04-21T15:09:45.232Z,94923.47
2023-04-21T15:12:47.078Z,94923.47
2023-04-21T15:15:48.935Z,94929.47
2023-04-21T15:18:50.702Z,94916.50
2023-04-21T15:21:53.935Z,94919.13
2023-04-21T15:24:55.776Z,94927.44
2023-04-21T15:27:57.502Z,94929.91
2023-04-21T15:30:59.298Z,94923.66
2023-04-21T15:34:01.169Z,94925.38
2023-04-21T15:37:04.433Z,94919.13
2023-04-21T15:40:08.011Z,94922.25
2023-04-21T15:43:09.790Z,94925.31
2023-04-21T15:46:11.546Z,94915.22
2023-04-21T15:49:13.457Z,94920.38
2023-04-21T15:52:16.688Z,94919.22
2023-04-21T15:55:18.579Z,94921.13
2023-04-21T15:58:20.420Z,94920.38
2023-04-21T16:01:22.502Z,94912.75
2023-04-21T16:04:24.679Z,94920.34
2023-04-21T16:07:28.150Z,94911.13
2023-04-21T16:10:29.920Z,94907.19
2023-04-21T16:13:31.909Z,94913.44
2023-04-21T16:16:33.714Z,94911.00
2023-04-21T16:19:35.534Z,94912.97
2023-04-21T16:22:38.680Z,94913.44
2023-04-21T16:25:40.637Z,94914.88
2023-04-21T16:28:42.492Z,94917.03
2023-04-21T16:31:44.325Z,94912.81
2023-04-21T16:34:46.202Z,94903.38
2023-04-21T16:37:49.483Z,94908.09
2023-04-21T16:40:51.311Z,94904.00
2023-04-21T16:43:53.086Z,94898.13
2023-04-21T16:46:55.216Z,94904.00
2023-04-21T16:49:57.155Z,94898.06
2023-04-21T16:53:00.732Z,94903.00
2023-04-21T16:56:02.601Z,94898.06
2023-04-21T16:59:04.370Z,94898.97
2023-04-21T17:02:06.402Z,94900.84
2023-04-21T17:05:09.089Z,94901.13
2023-04-21T17:08:12.500Z,94900.16
2023-04-21T17:11:14.454Z,94906.34
2023-04-21T17:14:16.216Z,94903.19
2023-04-21T17:17:18.031Z,94909.66
2023-04-21T17:20:19.809Z,94900.88
2023-04-21T17:23:22.848Z,94902.41
2023-04-21T17:26:24.800Z,94906.84
2023-04-21T17:29:26.528Z,94906.97
2023-04-21T17:32:29.158Z,94910.66
2023-04-21T17:35:32.556Z,94916.56
2023-04-21T17:38:35.717Z,94910.59
2023-04-21T17:41:37.397Z,94916.53
2023-04-21T17:44:39.466Z,94915.34
2023-04-21T17:47:41.949Z,94911.72
2023-04-21T17:50:43.711Z,94918.94
2023-04-21T17:53:47.085Z,94920.97
2023-04-21T17:56:49.116Z,94923.16
2023-04-21T17:59:51.075Z,94924.69
2023-04-21T18:02:52.971Z,94917.94
2023-04-21T18:05:55.508Z,94919.56
2023-04-21T18:08:58.691Z,94925.31
2023-04-21T18:12:00.459Z,94929.63
2023-04-21T18:15:02.750Z,94930.38
2023-04-21T18:18:05.011Z,94933.25
2023-04-21T18:21:06.886Z,94934.06
2023-04-21T18:24:10.130Z,94938.03
2023-04-21T18:27:12.408Z,94936.31
2023-04-21T18:30:14.541Z,94938.56
2023-04-21T18:33:16.952Z,94947.16
2023-04-21T18:36:18.786Z,94946.41
2023-04-21T18:39:21.919Z,94951.00
2023-04-21T18:42:24.119Z,94953.31
2023-04-21T18:45:26.222Z,94957.88
2023-04-21T18:48:27.986Z,94953.16
2023-04-21T18:51:30.169Z,94961.94
2023-04-21T18:54:34.905Z,94956.84
2023-04-21T18:57:37.282Z,94960.97
2023-04-21T19:00:39.848Z,94956.56
2023-04-21T19:03:42.804Z,94956.09
2023-04-21T19:06:44.894Z,94956.09
2023-04-21T19:09:49.541Z,94956.31
2023-04-21T19:12:51.840Z,94955.75
2023-04-21T19:15:54.286Z,94955.69
2023-04-21T19:18:56.328Z,94957.50
2023-04-21T19:21:58.651Z,94947.13
2023-04-21T19:25:02.306Z,94953.41
2023-04-21T19:28:04.649Z,94953.09
2023-04-21T19:31:07.484Z,94957.06
2023-04-21T19:34:09.514Z,94944.13
2023-04-21T19:37:11.522Z,94958.31
2023-04-21T19:40:17.711Z,94949.50
2023-04-21T19:43:19.598Z,94953.91
2023-04-21T19:46:22.439Z,94954.69
2023-04-21T19:49:24.902Z,94948.25
2023-04-21T19:52:27.287Z,94953.31
2023-04-21T19:55:32.649Z,94943.44
2023-04-21T19:58:40.704Z,94940.78
2023-04-21T20:01:43.665Z,94942.28
2023-04-21T20:04:45.827Z,94942.41
2023-04-21T20:07:47.629Z,94944.13
2023-04-21T20:10:51.132Z,94944.94
2023-04-21T20:13:52.881Z,94951.13
2023-04-21T20:16:55.427Z,94945.69
2023-04-21T20:19:57.348Z,94951.03
2023-04-21T20:22:59.491Z,94956.72
2023-04-21T20:26:02.648Z,94951.84
2023-04-21T20:29:04.894Z,94962.63
2023-04-21T20:32:06.771Z,94958.56
2023-04-21T20:35:09.375Z,94956.31
2023-04-21T20:38:11.363Z,94953.00
2023-04-21T20:41:14.492Z,94959.28
2023-04-21T20:44:16.350Z,94955.78
2023-04-21T20:47:18.257Z,94960.09
2023-04-21T20:50:20.895Z,94958.00
2023-04-21T20:53:23.521Z,94964.16
2023-04-21T20:56:26.919Z,94967.66
2023-04-21T20:59:28.651Z,94964.16
2023-04-21T21:02:30.605Z,94970.56
2023-04-21T21:05:32.496Z,94974.31
2023-04-21T21:08:34.405Z,94971.38
2023-04-21T21:11:37.516Z,94977.00
2023-04-21T21:14:39.399Z,94970.38
2023-04-21T21:17:41.157Z,94981.56
2023-04-21T21:20:42.923Z,94970.47
2023-04-21T21:23:44.691Z,94985.41
2023-04-21T21:26:47.879Z,94977.88
2023-04-21T21:29:49.796Z,94981.94
2023-04-21T21:32:51.626Z,94989.97
2023-04-21T21:35:53.650Z,94982.63
2023-04-21T21:38:55.487Z,94981.13
2023-04-21T21:41:58.563Z,94977.31
2023-04-21T21:45:00.341Z,94980.34
2023-04-21T21:48:02.206Z,94982.69
2023-04-21T21:51:04.146Z,94983.91
2023-04-21T21:54:05.937Z,94991.72
2023-04-21T21:57:09.110Z,94993.78
2023-04-21T22:00:11.641Z,94996.84
2023-04-21T22:03:13.485Z,94992.63
2023-04-21T22:06:17.179Z,94994.53
2023-04-21T22:09:19.235Z,94989.94
2023-04-21T22:12:22.399Z,95002.91
2023-04-21T22:15:24.126Z,94994.88
2023-04-21T22:18:25.953Z,94993.69
2023-04-21T22:21:27.663Z,94991.41
2023-04-21T22:24:29.442Z,94998.66
2023-04-21T22:27:32.495Z,94999.19
2023-04-21T22:30:34.375Z,94997.56
2023-04-21T22:33:36.277Z,94990.78
2023-04-21T22:36:38.061Z,94988.41
2023-04-21T22:39:39.952Z,94991.25
2023-04-21T22:42:43.525Z,95001.41
2023-04-21T22:45:45.332Z,95005.69
2023-04-21T22:48:47.050Z,95009.19
2023-04-21T22:51:48.760Z,95010.81
2023-04-21T22:54:50.513Z,95017.00
2023-04-21T22:57:53.596Z,95011.53
2023-04-21T23:00:55.352Z,95015.53
2023-04-21T23:03:57.191Z,95021.00
2023-04-21T23:06:59.185Z,95013.72
2023-04-21T23:10:00.953Z,95022.53
2023-04-21T23:13:04.044Z,95020.28
2023-04-21T23:16:06.059Z,95019.59
2023-04-21T23:19:07.809Z,95021.19
2023-04-21T23:22:09.753Z,95025.84
2023-04-21T23:25:11.571Z,95027.38
2023-04-21T23:28:14.646Z,95029.81
2023-04-21T23:31:16.504Z,95018.66
2023-04-21T23:34:18.503Z,95021.00
2023-04-21T23:37:20.226Z,95016.44
2023-04-21T23:40:22.058Z,95011.84
2023-04-21T23:43:25.300Z,95006.78
2023-04-21T23:46:27.054Z,95011.44
2023-04-21T23:49:28.843Z,95009.50
2023-04-21T23:52:30.585Z,95004.47
2023-04-21T23:55:32.334Z,95004.13
2023-04-21T23:58:35.509Z,95007.59
